createdAt,value
2022-12-26T00:01:35.800Z,6.80
2022-12-26T00:04:48.870Z,7.40
2022-12-26T00:07:55.401Z,8.20
2022-12-26T00:10:58.694Z,7.70
2022-12-26T00:14:03.724Z,5.60
2022-12-26T00:17:07.953Z,6.03
2022-12-26T00:20:11.673Z,6.55
2022-12-26T00:23:14.540Z,6.90
2022-12-26T00:26:19.865Z,7.78
2022-12-26T00:29:23.528Z,6.65
2022-12-26T00:32:27.732Z,6.88
2022-12-26T00:35:30.520Z,6.60
2022-12-26T00:38:33.388Z,7.18
2022-12-26T00:41:36.286Z,7.55
2022-12-26T00:44:39.363Z,6.80
2022-12-26T00:47:43.566Z,6.25
2022-12-26T00:50:46.602Z,6.35
2022-12-26T00:53:49.557Z,6.10
2022-12-26T00:56:52.396Z,8.25
2022-12-26T00:59:55.243Z,6.15
2022-12-26T01:02:59.668Z,6.47
2022-12-26T01:06:04.056Z,6.07
2022-12-26T01:09:06.928Z,6.43
2022-12-26T01:12:09.753Z,6.15
2022-12-26T01:15:12.736Z,5.55
2022-12-26T01:18:17.005Z,6.10
2022-12-26T01:21:19.790Z,6.00
2022-12-26T01:24:23.053Z,6.05
2022-12-26T01:27:27.231Z,6.10
2022-12-26T01:30:30.262Z,5.75
2022-12-26T01:33:34.483Z,6.53
2022-12-26T01:36:37.276Z,4.97
2022-12-26T01:39:40.098Z,6.75
2022-12-26T01:42:43.118Z,6.60
2022-12-26T01:45:51.641Z,5.88
2022-12-26T01:48:57.235Z,6.20
2022-12-26T01:52:03.790Z,6.10
2022-12-26T01:55:11.860Z,6.05
2022-12-26T01:58:21.642Z,5.85
2022-12-26T02:01:28.650Z,6.10
2022-12-26T02:04:54.641Z,6.00
2022-12-26T02:07:57.863Z,5.57
2022-12-26T02:11:08.799Z,4.90
2022-12-26T02:14:13.098Z,6.32
2022-12-26T02:17:16.044Z,5.47
2022-12-26T02:20:23.813Z,5.18
2022-12-26T02:24:01.743Z,5.55
2022-12-26T02:27:18.162Z,7.07
2022-12-26T02:30:37.631Z,5.40
2022-12-26T02:33:56.429Z,5.47
2022-12-26T02:37:18.449Z,6.15
2022-12-26T02:40:38.606Z,5.35
2022-12-26T02:43:48.920Z,4.65
2022-12-26T02:47:05.153Z,5.75
2022-12-26T02:50:39.195Z,5.53
2022-12-26T02:54:06.495Z,5.45
2022-12-26T02:57:33.289Z,4.60
2022-12-26T03:01:02.879Z,4.82
2022-12-26T03:04:30.733Z,6.35
2022-12-26T03:07:55.792Z,5.32
2022-12-26T03:11:17.500Z,5.05
2022-12-26T03:14:24.955Z,6.00
2022-12-26T03:17:31.195Z,4.78
2022-12-26T03:20:37.855Z,4.80
2022-12-26T03:23:44.921Z,5.03
2022-12-26T03:26:50.505Z,5.07
2022-12-26T03:30:10.603Z,5.70
2022-12-26T03:33:27.362Z,5.47
2022-12-26T03:36:40.389Z,5.45
2022-12-26T03:40:12.172Z,5.30
2022-12-26T03:43:47.213Z,4.60
2022-12-26T03:47:20.197Z,5.32
2022-12-26T03:50:51.202Z,5.50
2022-12-26T03:54:19.135Z,5.25
2022-12-26T03:57:44.226Z,5.80
2022-12-26T04:01:09.031Z,4.60
2022-12-26T04:04:33.027Z,5.50
2022-12-26T04:07:59.825Z,4.50
2022-12-26T04:11:23.411Z,4.43
2022-12-26T04:14:57.107Z,5.40
2022-12-26T04:18:22.804Z,4.43
2022-12-26T04:21:49.443Z,4.97
2022-12-26T04:25:15.575Z,4.25
2022-12-26T04:28:38.431Z,5.25
2022-12-26T04:32:05.026Z,4.57
2022-12-26T04:35:33.300Z,4.68
2022-12-26T04:38:58.564Z,4.13
2022-12-26T04:42:19.204Z,5.15
2022-12-26T04:45:24.685Z,4.70
2022-12-26T04:48:44.865Z,5.25
2022-12-26T04:51:47.680Z,4.88
2022-12-26T04:54:51.773Z,4.90
2022-12-26T04:57:55.009Z,4.60
2022-12-26T05:01:20.069Z,3.97
2022-12-26T05:04:40.497Z,4.15
2022-12-26T05:08:01.212Z,5.18
2022-12-26T05:11:04.092Z,4.63
2022-12-26T05:14:06.886Z,4.57
2022-12-26T05:17:31.083Z,4.20
2022-12-26T05:20:51.215Z,4.57
2022-12-26T05:24:11.381Z,4.03
2022-12-26T05:27:34.707Z,3.80
2022-12-26T05:30:38.303Z,4.20
2022-12-26T05:34:00.561Z,4.95
2022-12-26T05:37:03.636Z,4.47
2022-12-26T05:40:07.674Z,4.68
2022-12-26T05:43:10.535Z,3.85
2022-12-26T05:46:13.469Z,4.32
2022-12-26T05:49:17.660Z,4.38
2022-12-26T05:52:20.508Z,4.38
2022-12-26T05:55:24.412Z,4.60
2022-12-26T05:58:27.308Z,3.67
2022-12-26T06:01:31.299Z,3.83
2022-12-26T06:04:36.547Z,4.90
2022-12-26T06:07:39.443Z,4.03
2022-12-26T06:10:42.331Z,3.42
2022-12-26T06:13:45.477Z,4.50
2022-12-26T06:16:48.401Z,4.50
2022-12-26T06:19:52.613Z,3.55
2022-12-26T06:22:55.447Z,5.35
2022-12-26T06:25:58.968Z,3.30
2022-12-26T06:29:01.930Z,4.18
2022-12-26T06:32:05.268Z,4.13
2022-12-26T06:35:10.022Z,3.92
2022-12-26T06:38:13.354Z,5.00
2022-12-26T06:41:19.080Z,4.68
2022-12-26T06:44:22.089Z,4.47
2022-12-26T06:47:25.013Z,4.22
2022-12-26T06:50:29.719Z,4.18
2022-12-26T06:53:32.619Z,3.97
2022-12-26T06:56:36.157Z,3.97
2022-12-26T06:59:38.975Z,3.30
2022-12-26T07:02:41.857Z,4.15
2022-12-26T07:05:46.202Z,3.90
2022-12-26T07:08:49.415Z,3.55
2022-12-26T07:11:52.219Z,4.47
2022-12-26T07:14:59.639Z,3.38
2022-12-26T07:18:04.324Z,3.40
2022-12-26T07:21:09.933Z,4.25
2022-12-26T07:24:16.667Z,4.25
2022-12-26T07:27:19.486Z,3.47
2022-12-26T07:30:22.603Z,3.45
2022-12-26T07:33:25.495Z,3.65
2022-12-26T07:36:29.894Z,3.50
2022-12-26T07:39:32.708Z,4.00
2022-12-26T07:42:35.589Z,3.90
2022-12-26T07:45:45.047Z,3.70
2022-12-26T07:48:48.649Z,3.40
2022-12-26T07:51:53.318Z,4.32
2022-12-26T07:54:56.143Z,3.65
2022-12-26T07:57:58.971Z,3.63
2022-12-26T08:01:02.499Z,3.95
2022-12-26T08:04:05.653Z,3.40
2022-12-26T08:07:10.844Z,3.70
2022-12-26T08:10:14.417Z,3.35
2022-12-26T08:13:17.271Z,3.05
2022-12-26T08:16:21.147Z,3.65
2022-12-26T08:19:24.371Z,3.58
2022-12-26T08:22:28.557Z,3.20
2022-12-26T08:25:31.375Z,2.95
2022-12-26T08:28:34.402Z,3.65
2022-12-26T08:31:38.427Z,3.67
2022-12-26T08:34:41.285Z,3.22
2022-12-26T08:37:45.510Z,3.15
2022-12-26T08:40:56.099Z,3.03
2022-12-26T08:47:26.313Z,3.30
2022-12-26T08:50:29.367Z,3.63
2022-12-26T08:53:35.826Z,3.72
2022-12-26T08:56:38.865Z,3.72
2022-12-26T08:59:41.779Z,3.10
2022-12-26T09:02:44.782Z,3.45
2022-12-26T09:05:48.093Z,3.22
2022-12-26T09:08:52.840Z,3.95
2022-12-26T09:11:55.734Z,3.47
2022-12-26T09:14:58.519Z,3.33
2022-12-26T09:18:01.378Z,3.22
2022-12-26T09:21:06.006Z,3.05
2022-12-26T09:24:13.512Z,2.50
2022-12-26T09:27:16.480Z,3.10
2022-12-26T09:30:19.583Z,3.30
2022-12-26T09:33:22.384Z,3.28
2022-12-26T09:36:27.540Z,2.83
2022-12-26T09:39:31.769Z,3.05
2022-12-26T09:42:40.638Z,3.10
2022-12-26T09:45:54.272Z,3.00
2022-12-26T09:49:02.221Z,2.88
2022-12-26T09:52:12.841Z,3.50
2022-12-26T09:55:39.715Z,2.88
2022-12-26T09:58:47.272Z,4.43
2022-12-26T10:01:50.280Z,3.85
2022-12-26T10:04:54.523Z,4.22
2022-12-26T10:08:02.292Z,2.85
2022-12-26T10:11:11.324Z,3.00
2022-12-26T10:14:22.601Z,3.40
2022-12-26T10:17:33.589Z,3.45
2022-12-26T10:20:52.368Z,3.92
2022-12-26T10:23:58.661Z,3.45
2022-12-26T10:27:09.962Z,4.10
2022-12-26T10:30:18.761Z,3.17
2022-12-26T10:33:31.484Z,2.85
2022-12-26T10:36:40.795Z,2.58
2022-12-26T10:39:48.342Z,2.97
2022-12-26T10:42:54.909Z,2.40
2022-12-26T10:46:17.661Z,4.07
2022-12-26T10:49:24.653Z,3.40
2022-12-26T10:52:32.370Z,3.60
2022-12-26T10:55:36.590Z,2.58
2022-12-26T10:58:42.166Z,2.95
2022-12-26T11:01:48.356Z,3.00
2022-12-26T11:05:48.384Z,3.65
2022-12-26T11:08:40.678Z,2.72
2022-12-26T11:11:52.995Z,3.22
2022-12-26T11:15:02.605Z,3.17
2022-12-26T11:18:17.161Z,3.83
2022-12-26T11:21:23.908Z,3.00
2022-12-26T11:24:26.764Z,2.97
2022-12-26T11:27:29.593Z,2.45
2022-12-26T11:30:38.115Z,2.72
2022-12-26T11:33:44.401Z,2.85
2022-12-26T11:36:49.778Z,3.35
2022-12-26T11:39:53.424Z,2.38
2022-12-26T11:42:58.459Z,3.33
2022-12-26T11:46:02.943Z,2.63
2022-12-26T11:49:08.463Z,2.40
2022-12-26T11:52:34.564Z,3.28
2022-12-26T11:55:39.343Z,3.15
2022-12-26T11:58:42.150Z,3.05
2022-12-26T12:01:47.262Z,3.30
2022-12-26T12:04:52.025Z,3.20
2022-12-26T12:08:19.889Z,2.50
2022-12-26T12:11:30.471Z,3.00
2022-12-26T12:14:49.482Z,2.47
2022-12-26T12:18:06.617Z,2.55
2022-12-26T12:21:19.076Z,2.67
2022-12-26T12:24:39.515Z,2.53
2022-12-26T12:27:48.984Z,2.60
2022-12-26T12:31:03.148Z,2.65
2022-12-26T12:34:18.581Z,2.33
2022-12-26T12:37:33.968Z,2.65
2022-12-26T12:40:45.973Z,2.40
2022-12-26T12:43:54.738Z,2.60
2022-12-26T12:47:10.103Z,2.33
2022-12-26T12:50:24.265Z,2.30
2022-12-26T12:53:44.128Z,2.17
2022-12-26T12:56:55.268Z,5.60
2022-12-26T13:00:11.909Z,2.50
2022-12-26T13:03:26.311Z,2.67
2022-12-26T13:06:36.376Z,2.30
2022-12-26T13:09:45.628Z,2.40
2022-12-26T13:12:50.039Z,2.55
2022-12-26T13:15:57.793Z,2.63
2022-12-26T13:19:04.113Z,2.63
2022-12-26T13:22:14.948Z,2.30
2022-12-26T13:25:19.253Z,2.47
2022-12-26T13:28:26.394Z,3.05
2022-12-26T13:31:34.950Z,2.47
2022-12-26T13:34:38.465Z,2.30
2022-12-26T13:37:57.680Z,2.45
2022-12-26T13:41:24.319Z,2.20
2022-12-26T13:44:27.393Z,2.30
2022-12-26T13:47:35.900Z,2.22
2022-12-26T13:50:55.311Z,2.38
2022-12-26T13:54:10.136Z,2.35
2022-12-26T13:57:35.954Z,2.30
2022-12-26T14:00:46.245Z,2.50
2022-12-26T14:04:09.625Z,2.10
2022-12-26T14:07:25.849Z,2.75
2022-12-26T14:10:40.947Z,2.08
2022-12-26T14:14:06.528Z,1.77
2022-12-26T14:17:20.408Z,3.08
2022-12-26T14:20:39.520Z,2.20
2022-12-26T14:23:48.318Z,3.38
2022-12-26T14:27:01.831Z,2.45
2022-12-26T14:30:21.397Z,2.95
2022-12-26T14:33:31.375Z,2.33
2022-12-26T14:36:41.956Z,2.00
2022-12-26T14:39:58.714Z,2.08
2022-12-26T14:43:30.063Z,2.40
2022-12-26T14:46:57.608Z,2.00
2022-12-26T14:50:40.310Z,2.60
2022-12-26T14:53:44.125Z,2.20
2022-12-26T14:56:47.484Z,1.90
2022-12-26T15:00:32.552Z,2.00
2022-12-26T15:03:52.600Z,2.38
2022-12-26T15:07:22.251Z,2.00
2022-12-26T15:11:00.622Z,2.40
2022-12-26T15:14:35.564Z,2.75
2022-12-26T15:17:48.192Z,2.20
2022-12-26T15:21:18.577Z,2.08
2022-12-26T15:25:18.005Z,2.28
2022-12-26T15:28:44.587Z,2.20
2022-12-26T15:31:59.883Z,2.28
2022-12-26T15:35:19.895Z,2.10
2022-12-26T15:38:33.858Z,2.03
2022-12-26T15:41:44.740Z,1.95
2022-12-26T15:44:56.308Z,2.35
2022-12-26T15:48:05.995Z,2.38
2022-12-26T15:51:14.384Z,2.17
2022-12-26T15:54:41.012Z,3.00
2022-12-26T15:57:51.704Z,2.10
2022-12-26T16:00:55.867Z,2.00
2022-12-26T16:04:01.555Z,3.35
2022-12-26T16:07:10.082Z,2.25
2022-12-26T16:10:30.637Z,2.33
2022-12-26T16:13:34.501Z,2.55
2022-12-26T16:16:39.167Z,2.15
2022-12-26T16:19:43.794Z,1.67
2022-12-26T16:22:47.271Z,2.08
2022-12-26T16:25:53.704Z,1.75
2022-12-26T16:28:58.878Z,2.15
2022-12-26T16:32:06.281Z,1.90
2022-12-26T16:35:18.604Z,1.70
2022-12-26T16:38:27.515Z,2.17
2022-12-26T16:41:33.337Z,2.38
2022-12-26T16:44:38.473Z,1.85
2022-12-26T16:47:41.687Z,2.13
2022-12-26T16:50:48.703Z,2.42
2022-12-26T16:53:51.516Z,2.00
2022-12-26T16:57:03.234Z,1.75
2022-12-26T17:00:06.919Z,2.53
2022-12-26T17:03:18.675Z,1.90
2022-12-26T17:06:27.293Z,1.63
2022-12-26T17:09:33.142Z,1.80
2022-12-26T17:12:39.977Z,1.70
2022-12-26T17:15:52.991Z,1.60
2022-12-26T17:18:56.807Z,1.92
2022-12-26T17:22:23.276Z,1.80
2022-12-26T17:25:28.229Z,1.73
2022-12-26T17:28:32.706Z,1.90
2022-12-26T17:31:40.102Z,1.98
2022-12-26T17:34:43.460Z,2.90
2022-12-26T17:37:49.370Z,2.97
2022-12-26T17:40:55.219Z,3.20
2022-12-26T17:44:00.132Z,2.50
2022-12-26T17:47:10.987Z,2.70
2022-12-26T17:50:14.756Z,2.60
2022-12-26T17:53:27.636Z,2.67
2022-12-26T17:56:30.561Z,2.13
2022-12-26T17:59:35.544Z,2.40
2022-12-26T18:02:38.516Z,2.55
2022-12-26T18:05:41.720Z,3.40
2022-12-26T18:08:44.587Z,3.15
2022-12-26T18:11:47.448Z,2.35
2022-12-26T18:14:54.665Z,1.95
2022-12-26T18:18:02.283Z,2.20
2022-12-26T18:21:08.551Z,2.90
2022-12-26T18:24:11.882Z,2.88
2022-12-26T18:27:19.225Z,2.53
2022-12-26T18:30:26.341Z,2.17
2022-12-26T18:33:29.180Z,2.50
2022-12-26T18:36:35.425Z,2.30
2022-12-26T18:39:38.367Z,2.45
2022-12-26T18:42:41.199Z,3.33
2022-12-26T18:45:45.700Z,2.20
2022-12-26T18:48:51.001Z,2.67
2022-12-26T18:51:53.813Z,2.20
2022-12-26T18:54:56.651Z,2.97
2022-12-26T18:57:59.598Z,2.10
2022-12-26T19:01:06.024Z,2.40
2022-12-26T19:04:15.509Z,3.35
2022-12-26T19:07:22.306Z,2.78
2022-12-26T19:10:28.473Z,2.38
2022-12-26T19:13:31.246Z,4.22
2022-12-26T19:16:35.663Z,2.90
2022-12-26T19:19:38.588Z,2.53
2022-12-26T19:22:41.383Z,3.53
2022-12-26T19:25:44.367Z,2.78
2022-12-26T19:28:51.973Z,3.13
2022-12-26T19:31:56.577Z,2.03
2022-12-26T19:34:59.524Z,2.20
2022-12-26T19:38:02.362Z,3.47
2022-12-26T19:41:06.485Z,2.67
2022-12-26T19:44:10.837Z,2.72
2022-12-26T19:47:15.078Z,2.90
2022-12-26T19:50:18.003Z,3.53
2022-12-26T19:53:20.856Z,2.08
2022-12-26T19:56:25.898Z,3.42
2022-12-26T19:59:28.802Z,4.05
2022-12-26T20:02:33.078Z,3.58
2022-12-26T20:05:37.962Z,2.92
2022-12-26T20:08:41.633Z,2.42
2022-12-26T20:11:47.484Z,1.95
2022-12-26T20:14:50.755Z,2.63
2022-12-26T20:17:54.999Z,2.17
2022-12-26T20:20:58.127Z,3.03
2022-12-26T20:24:02.254Z,3.08
2022-12-26T20:27:05.478Z,2.15
2022-12-26T20:30:10.466Z,3.95
2022-12-26T20:33:14.652Z,2.53
2022-12-26T20:36:19.892Z,4.00
2022-12-26T20:39:23.386Z,2.92
2022-12-26T20:42:26.250Z,2.53
2022-12-26T20:45:29.088Z,1.95
2022-12-26T20:48:33.236Z,2.65
2022-12-26T20:51:38.520Z,2.88
2022-12-26T20:54:41.423Z,2.60
2022-12-26T20:57:44.277Z,3.25
2022-12-26T21:00:47.423Z,2.63
2022-12-26T21:03:54.797Z,3.72
2022-12-26T21:06:57.626Z,3.05
2022-12-26T21:10:00.727Z,2.85
2022-12-26T21:13:03.648Z,2.70
2022-12-26T21:16:10.003Z,4.95
2022-12-26T21:19:15.883Z,4.13
2022-12-26T21:22:18.953Z,3.25
2022-12-26T21:25:22.309Z,3.22
2022-12-26T21:28:25.116Z,3.10
2022-12-26T21:31:29.151Z,2.67
2022-12-26T21:34:34.836Z,2.47
2022-12-26T21:37:51.503Z,3.45
2022-12-26T21:40:54.349Z,3.03
2022-12-26T21:43:57.168Z,3.53
2022-12-26T21:47:00.424Z,2.65
2022-12-26T21:50:05.215Z,2.35
2022-12-26T21:53:08.329Z,3.53
2022-12-26T21:56:12.390Z,2.28
2022-12-26T21:59:32.924Z,3.78
2022-12-26T22:02:55.837Z,2.70
2022-12-26T22:06:00.132Z,2.70
2022-12-26T22:09:02.965Z,2.42
2022-12-26T22:12:23.460Z,2.55
2022-12-26T22:15:44.651Z,4.13
2022-12-26T22:18:48.499Z,3.80
2022-12-26T22:21:52.965Z,2.70
2022-12-26T22:24:55.772Z,2.55
2022-12-26T22:28:00.255Z,2.40
2022-12-26T22:31:03.274Z,2.92
2022-12-26T22:34:07.975Z,2.22
2022-12-26T22:37:12.217Z,3.85
2022-12-26T22:40:15.131Z,2.75
2022-12-26T22:43:18.174Z,2.70
2022-12-26T22:46:21.049Z,2.60
2022-12-26T22:49:23.878Z,2.90
2022-12-26T22:52:28.021Z,2.75
2022-12-26T22:55:30.898Z,3.88
2022-12-26T22:58:34.824Z,4.90
2022-12-26T23:01:37.762Z,3.63
2022-12-26T23:04:41.107Z,2.92
2022-12-26T23:07:46.066Z,3.33
2022-12-26T23:10:50.375Z,3.58
2022-12-26T23:13:54.048Z,3.65
2022-12-26T23:16:59.499Z,3.00
2022-12-26T23:20:20.392Z,3.67
2022-12-26T23:23:25.661Z,3.70
2022-12-26T23:26:28.590Z,4.22
2022-12-26T23:29:48.840Z,3.15
2022-12-26T23:32:53.849Z,2.70
2022-12-26T23:35:56.800Z,3.28
2022-12-26T23:39:01.109Z,2.95
2022-12-26T23:42:03.946Z,2.58
2022-12-26T23:45:08.253Z,3.20
2022-12-26T23:48:11.235Z,3.35
2022-12-26T23:51:14.090Z,3.65
2022-12-26T23:54:18.328Z,3.13
2022-12-26T23:57:21.155Z,4.43
